createdAt,value
2017-05-11T00:00:34.009Z,0
2017-05-11T00:01:34.660Z,0
2017-05-11T00:02:35.353Z,0
2017-05-11T00:03:35.995Z,0
2017-05-11T00:04:36.587Z,0
2017-05-11T00:05:37.182Z,0
2017-05-11T00:06:37.781Z,0
2017-05-11T00:07:38.388Z,0
2017-05-11T00:08:38.987Z,0
2017-05-11T00:09:39.596Z,0
2017-05-11T00:10:40.202Z,0
2017-05-11T00:11:40.807Z,0
2017-05-11T00:12:41.403Z,0
2017-05-11T00:13:42.016Z,0
2017-05-11T00:14:42.618Z,0
2017-05-11T00:15:43.214Z,0
2017-05-11T00:16:43.820Z,0
2017-05-11T00:17:44.416Z,0
2017-05-11T00:18:45.031Z,0
2017-05-11T00:19:45.620Z,0
2017-05-11T00:20:46.224Z,0
2017-05-11T00:21:46.883Z,0
2017-05-11T00:22:47.487Z,0
2017-05-11T00:23:48.090Z,0
2017-05-11T00:24:48.702Z,0
2017-05-11T00:25:49.291Z,0
2017-05-11T00:26:49.952Z,0
2017-05-11T00:27:50.564Z,0
2017-05-11T00:28:51.174Z,0
2017-05-11T00:29:51.769Z,0
2017-05-11T00:30:52.376Z,0
2017-05-11T00:31:52.978Z,0
2017-05-11T00:32:53.583Z,0
2017-05-11T00:33:54.176Z,0
2017-05-11T00:34:54.773Z,0
2017-05-11T00:35:55.381Z,0
2017-05-11T00:36:56.037Z,0
2017-05-11T00:37:56.646Z,0
2017-05-11T00:38:57.252Z,0
2017-05-11T00:39:57.842Z,0
2017-05-11T00:40:58.446Z,0
2017-05-11T00:41:59.053Z,0
2017-05-11T00:42:59.659Z,0
2017-05-11T00:44:00.253Z,0
2017-05-11T00:45:00.850Z,0
2017-05-11T00:46:01.463Z,0
2017-05-11T00:47:02.098Z,0
2017-05-11T00:48:02.705Z,0
2017-05-11T00:49:03.312Z,0
2017-05-11T00:50:03.920Z,0
2017-05-11T00:51:04.516Z,0
2017-05-11T00:52:05.125Z,0
2017-05-11T00:53:05.730Z,0
2017-05-11T00:54:06.325Z,0
2017-05-11T00:55:06.930Z,0
2017-05-11T00:56:07.532Z,0
2017-05-11T00:57:08.136Z,0
2017-05-11T00:58:08.728Z,0
2017-05-11T00:59:09.326Z,0
2017-05-11T01:00:09.919Z,0
2017-05-11T01:01:10.524Z,0
2017-05-11T01:02:11.129Z,0
2017-05-11T01:03:11.716Z,0
2017-05-11T01:04:12.323Z,0
2017-05-11T01:05:12.930Z,0
2017-05-11T01:06:13.535Z,0
2017-05-11T01:07:14.128Z,0
2017-05-11T01:08:14.732Z,0
2017-05-11T01:09:15.327Z,0
2017-05-11T01:10:15.938Z,0
2017-05-11T01:11:16.544Z,0
2017-05-11T01:12:17.152Z,0
2017-05-11T01:13:17.749Z,0
2017-05-11T01:14:18.349Z,0
2017-05-11T01:15:18.946Z,0
2017-05-11T01:16:19.556Z,0
2017-05-11T01:17:20.151Z,0
2017-05-11T01:18:20.749Z,0
2017-05-11T01:19:21.357Z,0
2017-05-11T01:20:21.954Z,0
2017-05-11T01:21:22.568Z,0
2017-05-11T01:22:23.183Z,0
2017-05-11T01:23:23.809Z,0
2017-05-11T01:24:24.407Z,0
2017-05-11T01:25:25.010Z,0
2017-05-11T01:26:25.615Z,0
2017-05-11T01:27:26.216Z,0
2017-05-11T01:28:26.826Z,0
2017-05-11T01:29:27.430Z,0
2017-05-11T01:30:28.037Z,0
2017-05-11T01:31:28.639Z,0
2017-05-11T01:32:29.240Z,0
2017-05-11T01:33:29.842Z,0
2017-05-11T01:34:30.445Z,0
2017-05-11T01:35:31.036Z,0
2017-05-11T01:36:31.641Z,0
2017-05-11T01:37:32.234Z,0
2017-05-11T01:38:32.839Z,0
2017-05-11T01:39:33.444Z,0
2017-05-11T01:40:34.048Z,0
2017-05-11T01:41:34.646Z,0
2017-05-11T01:42:35.232Z,0
2017-05-11T01:43:35.826Z,0
2017-05-11T01:44:36.431Z,0
2017-05-11T01:45:37.026Z,0
2017-05-11T01:46:37.644Z,0
2017-05-11T01:47:38.253Z,0
2017-05-11T01:48:38.843Z,0
2017-05-11T01:49:39.436Z,0
2017-05-11T01:50:40.040Z,0
2017-05-11T01:51:40.629Z,0
2017-05-11T01:52:41.233Z,0
2017-05-11T01:53:41.833Z,0
2017-05-11T01:54:42.425Z,0
2017-05-11T01:55:43.032Z,0
2017-05-11T01:56:43.679Z,0
2017-05-11T01:57:44.297Z,0
2017-05-11T01:58:44.922Z,0
2017-05-11T01:59:45.530Z,0
2017-05-11T02:00:46.149Z,0
2017-05-11T02:01:46.749Z,0
2017-05-11T02:02:47.355Z,0
2017-05-11T02:03:47.961Z,0
2017-05-11T02:04:48.563Z,0
2017-05-11T02:05:49.170Z,0
2017-05-11T02:06:49.779Z,0
2017-05-11T02:07:50.387Z,0
2017-05-11T02:08:50.982Z,0
2017-05-11T02:09:51.590Z,0
2017-05-11T02:10:52.202Z,0
2017-05-11T02:11:52.854Z,0
2017-05-11T02:12:53.444Z,0
2017-05-11T02:13:54.054Z,0
2017-05-11T02:14:54.658Z,0
2017-05-11T02:15:55.260Z,0
2017-05-11T02:16:55.907Z,0
2017-05-11T02:17:56.508Z,0
2017-05-11T02:18:57.105Z,0
2017-05-11T02:19:57.726Z,0
2017-05-11T02:20:58.329Z,0
2017-05-11T02:21:58.928Z,0
2017-05-11T02:22:59.535Z,0
2017-05-11T02:24:00.147Z,0
2017-05-11T02:25:00.762Z,0
2017-05-11T02:26:01.359Z,0
2017-05-11T02:27:01.969Z,0
2017-05-11T02:28:02.573Z,0
2017-05-11T02:29:03.168Z,0
2017-05-11T02:30:03.774Z,0
2017-05-11T02:31:04.381Z,0
2017-05-11T02:32:04.982Z,0
2017-05-11T02:33:05.583Z,0
2017-05-11T02:34:06.181Z,0
2017-05-11T02:35:06.772Z,0
2017-05-11T02:36:07.382Z,0
2017-05-11T02:37:07.976Z,0
2017-05-11T02:38:08.587Z,0
2017-05-11T02:39:09.192Z,0
2017-05-11T02:40:09.782Z,0
2017-05-11T02:41:10.377Z,0
2017-05-11T02:42:10.986Z,0
2017-05-11T02:43:11.593Z,0
2017-05-11T02:44:12.201Z,0
2017-05-11T02:45:12.808Z,0
2017-05-11T02:46:13.469Z,0
2017-05-11T02:47:14.077Z,0
2017-05-11T02:48:14.670Z,0
2017-05-11T02:49:15.269Z,0
2017-05-11T02:50:15.857Z,0
2017-05-11T02:51:16.455Z,0
2017-05-11T02:52:17.054Z,0
2017-05-11T02:53:17.662Z,0
2017-05-11T02:54:18.266Z,0
2017-05-11T02:55:18.865Z,0
2017-05-11T02:56:19.459Z,0
2017-05-11T02:57:20.052Z,0
2017-05-11T02:58:20.646Z,0
2017-05-11T02:59:21.238Z,0
2017-05-11T03:00:21.835Z,0
2017-05-11T03:01:22.486Z,0
2017-05-11T03:02:23.084Z,0
2017-05-11T03:03:23.685Z,0
2017-05-11T03:04:24.282Z,0
2017-05-11T03:05:24.874Z,0
2017-05-11T03:06:25.533Z,0
2017-05-11T03:07:26.140Z,0
2017-05-11T03:08:26.740Z,0
2017-05-11T03:09:27.350Z,0
2017-05-11T03:10:27.953Z,0
2017-05-11T03:11:28.602Z,0
2017-05-11T03:12:29.206Z,0
2017-05-11T03:13:29.799Z,0
2017-05-11T03:14:30.396Z,0
2017-05-11T03:15:31.000Z,0
2017-05-11T03:16:31.593Z,0
2017-05-11T03:17:32.201Z,0
2017-05-11T03:18:32.806Z,0
2017-05-11T03:19:33.411Z,0
2017-05-11T03:20:34.010Z,0
2017-05-11T03:21:34.668Z,0
2017-05-11T03:22:35.275Z,0
2017-05-11T03:23:35.884Z,0
2017-05-11T03:24:36.495Z,0
2017-05-11T03:25:37.093Z,0
2017-05-11T03:26:37.749Z,0
2017-05-11T03:27:38.345Z,0
2017-05-11T03:28:38.937Z,0
2017-05-11T03:29:39.533Z,0
2017-05-11T03:30:40.135Z,0
2017-05-11T03:31:40.790Z,0
2017-05-11T03:32:41.397Z,0
2017-05-11T03:33:42.002Z,0
2017-05-11T03:34:42.595Z,0
2017-05-11T03:35:43.192Z,0
2017-05-11T03:36:43.796Z,0
2017-05-11T03:37:44.393Z,0
2017-05-11T03:38:45.001Z,0
2017-05-11T03:39:45.605Z,0
2017-05-11T03:40:46.207Z,0
2017-05-11T03:41:46.815Z,5
2017-05-11T03:42:47.424Z,5
2017-05-11T03:43:48.035Z,5
2017-05-11T03:44:48.631Z,5
2017-05-11T03:45:49.228Z,5
2017-05-11T03:46:49.826Z,10
2017-05-11T03:47:50.435Z,10
2017-05-11T03:48:51.032Z,10
2017-05-11T03:49:51.629Z,10
2017-05-11T03:50:52.242Z,10
2017-05-11T03:51:52.850Z,15
2017-05-11T03:52:53.457Z,15
2017-05-11T03:53:54.064Z,15
2017-05-11T03:54:54.667Z,15
2017-05-11T03:55:55.260Z,20
2017-05-11T03:56:55.868Z,20
2017-05-11T03:57:56.481Z,20
2017-05-11T03:58:57.078Z,25
2017-05-11T03:59:57.686Z,25
2017-05-11T04:00:58.295Z,25
2017-05-11T04:01:58.946Z,30
2017-05-11T04:02:59.552Z,30
2017-05-11T04:04:00.154Z,30
2017-05-11T04:05:00.749Z,35
2017-05-11T04:06:01.362Z,35
2017-05-11T04:07:01.963Z,35
2017-05-11T04:08:02.559Z,40
2017-05-11T04:09:03.156Z,40
2017-05-11T04:10:03.753Z,40
2017-05-11T04:11:04.353Z,45
2017-05-11T04:12:04.970Z,45
2017-05-11T04:13:05.580Z,50
2017-05-11T04:14:06.182Z,50
2017-05-11T04:15:06.798Z,50
2017-05-11T04:16:07.417Z,55
2017-05-11T04:17:08.018Z,55
2017-05-11T04:18:08.629Z,60
2017-05-11T04:19:09.237Z,60
2017-05-11T04:20:09.834Z,60
2017-05-11T04:21:10.494Z,60
2017-05-11T04:22:11.106Z,60
2017-05-11T04:23:11.719Z,60
2017-05-11T04:24:12.330Z,65
2017-05-11T04:25:12.938Z,65
2017-05-11T04:26:13.601Z,65
2017-05-11T04:27:14.208Z,70
2017-05-11T04:28:14.808Z,80
2017-05-11T04:29:15.422Z,90
2017-05-11T04:30:16.036Z,95
2017-05-11T04:31:16.699Z,105
2017-05-11T04:32:17.301Z,110
2017-05-11T04:33:17.907Z,115
2017-05-11T04:34:18.519Z,125
2017-05-11T04:35:19.136Z,125
2017-05-11T04:36:19.840Z,135
2017-05-11T04:37:20.433Z,140
2017-05-11T04:38:21.059Z,145
2017-05-11T04:39:21.671Z,150
2017-05-11T04:40:22.340Z,150
2017-05-11T04:41:22.956Z,160
2017-05-11T04:42:23.561Z,160
2017-05-11T04:43:24.160Z,150
2017-05-11T04:44:24.774Z,130
2017-05-11T04:45:25.402Z,150
2017-05-11T04:46:26.017Z,180
2017-05-11T04:47:26.625Z,185
2017-05-11T04:48:27.256Z,185
2017-05-11T04:49:27.890Z,185
2017-05-11T04:50:28.512Z,190
2017-05-11T04:51:29.137Z,190
2017-05-11T04:52:29.771Z,195
2017-05-11T04:53:30.380Z,185
2017-05-11T04:54:31.044Z,175
2017-05-11T04:55:31.648Z,185
2017-05-11T04:56:32.308Z,210
2017-05-11T04:57:32.938Z,225
2017-05-11T04:58:33.558Z,230
2017-05-11T04:59:34.181Z,205
2017-05-11T05:00:34.789Z,205
2017-05-11T05:01:35.399Z,230
2017-05-11T05:02:36.010Z,240
2017-05-11T05:03:36.634Z,245
2017-05-11T05:04:37.259Z,225
2017-05-11T05:05:37.861Z,240
2017-05-11T05:06:38.471Z,210
2017-05-11T05:07:39.083Z,205
2017-05-11T05:08:39.706Z,250
2017-05-11T05:09:40.318Z,290
2017-05-11T05:10:40.940Z,285
2017-05-11T05:11:41.628Z,280
2017-05-11T05:12:42.277Z,300
2017-05-11T05:13:42.885Z,285
2017-05-11T05:14:43.498Z,290
2017-05-11T05:15:44.106Z,290
2017-05-11T05:16:44.770Z,285
2017-05-11T05:17:45.393Z,315
2017-05-11T05:18:46.016Z,365
2017-05-11T05:19:46.637Z,395
2017-05-11T05:20:47.253Z,405
2017-05-11T05:21:48.023Z,415
2017-05-11T05:22:48.643Z,405
2017-05-11T05:23:49.266Z,310
2017-05-11T05:24:49.889Z,255
2017-05-11T05:25:50.510Z,245
2017-05-11T05:26:51.126Z,300
2017-05-11T05:27:51.738Z,395
2017-05-11T05:28:52.347Z,385
2017-05-11T05:29:52.968Z,330
2017-05-11T05:30:53.593Z,280
2017-05-11T05:31:54.220Z,265
2017-05-11T05:32:54.843Z,295
2017-05-11T05:33:55.463Z,345
2017-05-11T05:34:56.083Z,390
2017-05-11T05:35:56.693Z,420
2017-05-11T05:36:57.299Z,425
2017-05-11T05:37:57.923Z,405
2017-05-11T05:38:58.541Z,405
2017-05-11T05:39:59.164Z,485
2017-05-11T05:40:59.812Z,625
2017-05-11T05:42:00.480Z,670
2017-05-11T05:43:01.095Z,700
2017-05-11T05:44:01.708Z,715
2017-05-11T05:45:02.326Z,735
2017-05-11T05:46:02.948Z,755
2017-05-11T05:47:03.600Z,780
2017-05-11T05:48:04.243Z,795
2017-05-11T05:49:04.859Z,815
2017-05-11T05:50:05.504Z,835
2017-05-11T05:51:06.169Z,840
2017-05-11T05:52:06.835Z,855
2017-05-11T05:53:07.467Z,865
2017-05-11T05:54:08.100Z,880
2017-05-11T05:55:08.717Z,895
2017-05-11T05:56:09.337Z,905
2017-05-11T05:57:10.022Z,935
2017-05-11T05:58:10.650Z,840
2017-05-11T05:59:11.279Z,590
2017-05-11T06:00:11.894Z,590
2017-05-11T06:01:12.563Z,845
2017-05-11T06:02:13.229Z,990
2017-05-11T06:03:14.845Z,485
2017-05-11T06:04:15.466Z,750
2017-05-11T06:05:16.091Z,790
2017-05-11T06:06:16.714Z,855
2017-05-11T06:07:17.328Z,1055
2017-05-11T06:08:17.955Z,1075
2017-05-11T06:09:18.568Z,1070
2017-05-11T06:10:19.187Z,1000
2017-05-11T06:11:19.822Z,980
2017-05-11T06:12:20.442Z,650
2017-05-11T06:13:21.079Z,730
2017-05-11T06:14:21.706Z,785
2017-05-11T06:15:22.339Z,705
2017-05-11T06:16:22.976Z,600
2017-05-11T06:17:23.604Z,655
2017-05-11T06:18:24.240Z,715
2017-05-11T06:19:24.876Z,765
2017-05-11T06:20:25.497Z,640
2017-05-11T06:21:26.117Z,605
2017-05-11T06:22:26.731Z,580
2017-05-11T06:23:27.359Z,580
2017-05-11T06:24:27.988Z,510
2017-05-11T06:25:28.602Z,505
2017-05-11T06:26:29.239Z,590
2017-05-11T06:27:29.886Z,630
2017-05-11T06:28:30.519Z,715
2017-05-11T06:29:31.156Z,570
2017-05-11T06:30:31.766Z,580
2017-05-11T06:31:32.381Z,565
2017-05-11T06:32:32.998Z,655
2017-05-11T06:33:33.627Z,570
2017-05-11T06:34:34.261Z,600
2017-05-11T06:35:34.869Z,705
2017-05-11T06:36:35.493Z,535
2017-05-11T06:37:36.109Z,580
2017-05-11T06:38:36.726Z,630
2017-05-11T06:39:37.350Z,765
2017-05-11T06:40:37.974Z,825
2017-05-11T06:41:38.587Z,925
2017-05-11T06:42:39.198Z,910
2017-05-11T06:43:39.808Z,775
2017-05-11T06:44:40.439Z,965
2017-05-11T06:45:41.073Z,1085
2017-05-11T06:46:41.698Z,1265
2017-05-11T06:47:42.327Z,1215
2017-05-11T06:48:42.955Z,965
2017-05-11T06:49:43.586Z,990
2017-05-11T06:50:44.211Z,1210
2017-05-11T06:51:44.889Z,1310
2017-05-11T06:52:45.514Z,750
2017-05-11T06:53:46.129Z,655
2017-05-11T06:54:46.758Z,945
2017-05-11T06:55:47.377Z,1115
2017-05-11T06:56:48.022Z,1165
2017-05-11T06:57:48.650Z,1310
2017-05-11T06:58:49.265Z,1150
2017-05-11T06:59:49.904Z,1220
2017-05-11T07:00:50.525Z,1120
2017-05-11T07:01:51.203Z,775
2017-05-11T07:02:51.822Z,780
2017-05-11T07:03:52.470Z,800
2017-05-11T07:04:53.098Z,630
2017-05-11T07:05:53.719Z,635
2017-05-11T07:06:54.382Z,1000
2017-05-11T07:07:55.006Z,1155
2017-05-11T07:08:55.626Z,680
2017-05-11T07:09:56.250Z,805
2017-05-11T07:10:56.878Z,750
2017-05-11T07:11:57.564Z,640
2017-05-11T07:12:58.187Z,600
2017-05-11T07:13:58.796Z,605
2017-05-11T07:14:59.411Z,580
2017-05-11T07:16:00.034Z,565
2017-05-11T07:17:00.695Z,565
2017-05-11T07:18:01.315Z,580
2017-05-11T07:19:01.936Z,555
2017-05-11T07:20:02.570Z,550
2017-05-11T07:21:03.184Z,545
2017-05-11T07:22:03.806Z,555
2017-05-11T07:23:04.435Z,615
2017-05-11T07:24:05.051Z,615
2017-05-11T07:25:05.680Z,630
2017-05-11T07:26:06.312Z,660
2017-05-11T07:27:06.943Z,720
2017-05-11T07:28:07.567Z,745
2017-05-11T07:29:08.204Z,755
2017-05-11T07:30:08.822Z,800
2017-05-11T07:31:09.444Z,830
2017-05-11T07:32:10.112Z,855
2017-05-11T07:33:10.753Z,820
2017-05-11T07:34:11.380Z,820
2017-05-11T07:35:11.994Z,770
2017-05-11T07:36:12.606Z,760
2017-05-11T07:37:13.217Z,780
2017-05-11T07:38:13.833Z,790
2017-05-11T07:39:14.460Z,850
2017-05-11T07:40:15.074Z,915
2017-05-11T07:41:15.688Z,1185
2017-05-11T07:42:16.326Z,1140
2017-05-11T07:43:16.944Z,1255
2017-05-11T07:44:17.570Z,1330
2017-05-11T07:45:18.203Z,1165
2017-05-11T07:46:18.847Z,1215
2017-05-11T07:47:19.466Z,1200
2017-05-11T07:48:20.080Z,1190
2017-05-11T07:49:20.692Z,1080
2017-05-11T07:50:21.313Z,1290
2017-05-11T07:51:21.928Z,1290
2017-05-11T07:52:22.554Z,1190
2017-05-11T07:53:23.179Z,1265
2017-05-11T07:54:23.819Z,1160
2017-05-11T07:55:24.427Z,1075
2017-05-11T07:56:25.054Z,865
2017-05-11T07:57:25.681Z,860
2017-05-11T07:58:26.309Z,865
2017-05-11T07:59:26.935Z,945
2017-05-11T08:00:27.545Z,950
2017-05-11T08:01:28.161Z,950
2017-05-11T08:02:28.774Z,940
2017-05-11T08:03:29.391Z,855
2017-05-11T08:04:30.017Z,860
2017-05-11T08:05:30.641Z,890
2017-05-11T08:06:31.277Z,920
2017-05-11T08:07:31.908Z,1025
2017-05-11T08:08:32.536Z,1130
2017-05-11T08:09:33.152Z,1110
2017-05-11T08:10:33.760Z,1070
2017-05-11T08:11:34.384Z,1085
2017-05-11T08:12:35.008Z,1030
2017-05-11T08:13:35.629Z,940
2017-05-11T08:14:36.256Z,865
2017-05-11T08:15:36.874Z,900
2017-05-11T08:16:37.507Z,885
2017-05-11T08:17:38.124Z,940
2017-05-11T08:18:38.744Z,950
2017-05-11T08:19:39.367Z,965
2017-05-11T08:20:39.982Z,915
2017-05-11T08:21:40.652Z,860
2017-05-11T08:22:41.281Z,825
2017-05-11T08:23:41.911Z,830
2017-05-11T08:24:42.532Z,850
2017-05-11T08:25:43.154Z,865
2017-05-11T08:26:43.782Z,825
2017-05-11T08:27:44.411Z,860
2017-05-11T08:28:45.037Z,810
2017-05-11T08:29:45.665Z,785
2017-05-11T08:30:46.295Z,810
2017-05-11T08:31:46.971Z,990
2017-05-11T08:32:47.589Z,1040
2017-05-11T08:33:48.203Z,1090
2017-05-11T08:34:48.836Z,930
2017-05-11T08:35:49.469Z,1090
2017-05-11T08:36:50.135Z,1045
2017-05-11T08:37:50.746Z,925
2017-05-11T08:38:51.369Z,880
2017-05-11T08:39:51.985Z,1155
2017-05-11T08:40:52.600Z,970
2017-05-11T08:41:53.230Z,855
2017-05-11T08:42:53.853Z,960
2017-05-11T08:43:54.470Z,870
2017-05-11T08:44:55.095Z,880
2017-05-11T08:45:55.925Z,840
2017-05-11T08:46:56.535Z,825
2017-05-11T08:47:57.154Z,820
2017-05-11T08:48:57.778Z,765
2017-05-11T08:49:58.407Z,755
2017-05-11T08:50:59.020Z,730
2017-05-11T08:51:59.696Z,710
2017-05-11T08:53:00.318Z,705
2017-05-11T08:54:00.933Z,705
2017-05-11T08:55:01.562Z,690
2017-05-11T08:56:02.188Z,690
2017-05-11T08:57:02.819Z,670
2017-05-11T08:58:03.437Z,660
2017-05-11T08:59:04.054Z,640
2017-05-11T09:00:04.679Z,625
2017-05-11T09:01:05.300Z,615
2017-05-11T09:02:05.923Z,615
2017-05-11T09:03:06.545Z,620
2017-05-11T09:04:07.159Z,615
2017-05-11T09:05:07.772Z,620
2017-05-11T09:06:08.549Z,620
2017-05-11T09:07:09.184Z,630
2017-05-11T09:08:09.801Z,645
2017-05-11T09:09:10.410Z,655
2017-05-11T09:10:11.037Z,675
2017-05-11T09:11:11.704Z,700
2017-05-11T09:12:12.341Z,720
2017-05-11T09:13:12.941Z,740
2017-05-11T09:14:13.565Z,755
2017-05-11T09:15:14.175Z,770
2017-05-11T09:16:14.855Z,785
2017-05-11T09:17:15.481Z,810
2017-05-11T09:18:16.107Z,840
2017-05-11T09:19:16.734Z,870
2017-05-11T09:20:17.351Z,905
2017-05-11T09:21:17.973Z,925
2017-05-11T09:22:18.590Z,940
2017-05-11T09:23:19.213Z,950
2017-05-11T09:24:19.841Z,970
2017-05-11T09:25:20.467Z,980
2017-05-11T09:26:21.095Z,1045
2017-05-11T09:27:21.711Z,980
2017-05-11T09:28:22.340Z,980
2017-05-11T09:29:22.972Z,1010
2017-05-11T09:30:23.594Z,1085
2017-05-11T09:31:24.258Z,1035
2017-05-11T09:32:24.883Z,960
2017-05-11T09:33:25.511Z,955
2017-05-11T09:34:26.129Z,925
2017-05-11T09:35:26.763Z,910
2017-05-11T09:36:27.393Z,910
2017-05-11T09:37:28.002Z,925
2017-05-11T09:38:28.616Z,925
2017-05-11T09:39:29.231Z,940
2017-05-11T09:40:29.858Z,935
2017-05-11T09:41:30.471Z,955
2017-05-11T09:42:31.081Z,1025
2017-05-11T09:43:31.712Z,1145
2017-05-11T09:44:32.344Z,1305
2017-05-11T09:45:32.985Z,1455
2017-05-11T09:46:33.599Z,1160
2017-05-11T09:47:34.210Z,985
2017-05-11T09:48:35.031Z,935
2017-05-11T09:49:35.658Z,940
2017-05-11T09:50:36.283Z,960
2017-05-11T09:51:36.894Z,1045
2017-05-11T09:52:37.519Z,1120
2017-05-11T09:53:38.146Z,1175
2017-05-11T09:54:38.771Z,1090
2017-05-11T09:55:39.387Z,1555
2017-05-11T09:56:40.011Z,1160
2017-05-11T09:57:40.627Z,1230
2017-05-11T09:58:41.242Z,1425
2017-05-11T09:59:41.856Z,1280
2017-05-11T10:00:42.483Z,1150
2017-05-11T10:01:43.166Z,1140
2017-05-11T10:02:43.781Z,1175
2017-05-11T10:03:44.396Z,1350
2017-05-11T10:04:45.018Z,1385
2017-05-11T10:05:45.863Z,1395
2017-05-11T10:06:46.539Z,1265
2017-05-11T10:07:47.165Z,1415
2017-05-11T10:08:47.791Z,1805
2017-05-11T10:09:48.435Z,1320
2017-05-11T10:10:49.065Z,1280
2017-05-11T10:11:49.746Z,1115
2017-05-11T10:12:50.372Z,1090
2017-05-11T10:13:50.983Z,960
2017-05-11T10:14:51.608Z,940
2017-05-11T10:15:52.235Z,985
2017-05-11T10:16:52.909Z,985
2017-05-11T10:17:53.537Z,910
2017-05-11T10:18:54.148Z,900
2017-05-11T10:19:54.774Z,1205
2017-05-11T10:20:55.625Z,1255
2017-05-11T10:21:56.453Z,1475
2017-05-11T10:22:57.081Z,1415
2017-05-11T10:23:57.693Z,1870
2017-05-11T10:24:58.330Z,1785
2017-05-11T10:25:58.995Z,1625
2017-05-11T10:26:59.626Z,1305
2017-05-11T10:28:00.253Z,1410
2017-05-11T10:29:00.870Z,1135
2017-05-11T10:30:01.483Z,1050
2017-05-11T10:31:02.110Z,1115
2017-05-11T10:32:02.737Z,1690
2017-05-11T10:33:03.354Z,1605
2017-05-11T10:34:03.988Z,1245
2017-05-11T10:35:04.839Z,1350
2017-05-11T10:36:05.469Z,1655
2017-05-11T10:37:06.092Z,1595
2017-05-11T10:38:06.717Z,1790
2017-05-11T10:39:07.349Z,1390
2017-05-11T10:40:07.965Z,1705
2017-05-11T10:41:08.580Z,1715
2017-05-11T10:42:09.209Z,1530
2017-05-11T10:43:09.840Z,1640
2017-05-11T10:44:10.471Z,1510
2017-05-11T10:45:11.110Z,1630
2017-05-11T10:46:11.733Z,1645
2017-05-11T10:47:12.410Z,1555
2017-05-11T10:48:13.037Z,1550
2017-05-11T10:49:13.661Z,1615
2017-05-11T10:50:14.284Z,1425
2017-05-11T10:51:14.922Z,1590
2017-05-11T10:52:15.555Z,1655
2017-05-11T10:53:16.180Z,1660
2017-05-11T10:54:16.809Z,1635
2017-05-11T10:55:17.439Z,1620
2017-05-11T10:56:18.072Z,1495
2017-05-11T10:57:18.706Z,1575
2017-05-11T10:58:19.344Z,1565
2017-05-11T10:59:19.982Z,1550
2017-05-11T11:00:20.622Z,1535
2017-05-11T11:01:21.253Z,1535
2017-05-11T11:02:21.882Z,1515
2017-05-11T11:03:22.502Z,1520
2017-05-11T11:04:23.359Z,1490
2017-05-11T11:05:23.990Z,1470
2017-05-11T11:06:24.619Z,1450
2017-05-11T11:07:25.293Z,1180
2017-05-11T11:08:25.923Z,1365
2017-05-11T11:09:26.554Z,1470
2017-05-11T11:10:27.186Z,1450
2017-05-11T11:11:27.820Z,1475
2017-05-11T11:12:28.446Z,1465
2017-05-11T11:13:29.079Z,1460
2017-05-11T11:14:29.692Z,1465
2017-05-11T11:15:30.330Z,1480
2017-05-11T11:16:30.964Z,1480
2017-05-11T11:17:31.588Z,1470
2017-05-11T11:18:32.226Z,1470
2017-05-11T11:19:32.865Z,1480
2017-05-11T11:20:33.483Z,1485
2017-05-11T11:21:34.323Z,1505
2017-05-11T11:22:34.954Z,1530
2017-05-11T11:23:35.585Z,1545
2017-05-11T11:24:36.227Z,1525
2017-05-11T11:25:36.871Z,1530
2017-05-11T11:26:37.554Z,745
2017-05-11T11:27:38.188Z,1475
2017-05-11T11:28:38.818Z,870
2017-05-11T11:29:39.456Z,1535
2017-05-11T11:30:40.083Z,1510
2017-05-11T11:31:40.704Z,1300
2017-05-11T11:32:41.335Z,1525
2017-05-11T11:33:41.956Z,1080
2017-05-11T11:34:42.589Z,685
2017-05-11T11:35:43.209Z,1525
2017-05-11T11:36:43.827Z,1580
2017-05-11T11:37:44.465Z,1550
2017-05-11T11:38:45.095Z,720
2017-05-11T11:39:45.719Z,1035
2017-05-11T11:40:46.351Z,575
2017-05-11T11:41:46.980Z,595
2017-05-11T11:42:47.608Z,655
2017-05-11T11:43:48.244Z,705
2017-05-11T11:44:48.871Z,810
2017-05-11T11:45:49.508Z,1490
2017-05-11T11:46:50.193Z,1680
2017-05-11T11:47:50.809Z,945
2017-05-11T11:48:51.428Z,970
2017-05-11T11:49:52.264Z,1335
2017-05-11T11:50:52.891Z,1135
2017-05-11T11:51:53.529Z,1865
2017-05-11T11:52:54.156Z,1830
2017-05-11T11:53:54.795Z,1810
2017-05-11T11:54:55.419Z,1735
2017-05-11T11:55:56.105Z,1615
2017-05-11T11:56:56.728Z,820
2017-05-11T11:57:57.345Z,915
2017-05-11T11:58:57.971Z,1615
2017-05-11T11:59:58.601Z,1840
2017-05-11T12:00:59.251Z,1755
2017-05-11T12:01:59.892Z,1820
2017-05-11T12:03:00.510Z,1220
2017-05-11T12:04:01.128Z,1640
2017-05-11T12:05:01.763Z,1775
2017-05-11T12:06:02.396Z,1035
2017-05-11T12:07:03.028Z,950
2017-05-11T12:08:03.661Z,940
2017-05-11T12:09:04.290Z,940
2017-05-11T12:10:04.908Z,900
2017-05-11T12:11:05.734Z,790
2017-05-11T12:12:06.355Z,790
2017-05-11T12:13:06.988Z,755
2017-05-11T12:14:07.819Z,720
2017-05-11T12:15:08.657Z,720
2017-05-11T12:16:09.515Z,740
2017-05-11T12:17:10.133Z,755
2017-05-11T12:18:10.763Z,760
2017-05-11T12:19:11.390Z,725
2017-05-11T12:20:12.020Z,710
2017-05-11T12:21:12.649Z,735
2017-05-11T12:22:13.262Z,795
2017-05-11T12:23:13.885Z,870
2017-05-11T12:24:14.716Z,1025
2017-05-11T12:25:15.362Z,1625
2017-05-11T12:26:16.189Z,1155
2017-05-11T12:27:16.818Z,995
2017-05-11T12:28:17.646Z,690
2017-05-11T12:29:18.265Z,530
2017-05-11T12:30:18.882Z,480
2017-05-11T12:31:19.692Z,435
2017-05-11T12:32:20.319Z,405
2017-05-11T12:33:20.932Z,370
2017-05-11T12:34:21.554Z,335
2017-05-11T12:35:22.167Z,305
2017-05-11T12:36:22.832Z,275
2017-05-11T12:37:23.453Z,265
2017-05-11T12:38:24.071Z,245
2017-05-11T12:39:24.700Z,235
2017-05-11T12:40:25.330Z,230
2017-05-11T12:41:26.000Z,230
2017-05-11T12:42:26.611Z,230
2017-05-11T12:43:27.233Z,235
2017-05-11T12:44:27.857Z,245
2017-05-11T12:45:28.471Z,255
2017-05-11T12:46:29.132Z,265
2017-05-11T12:47:29.738Z,285
2017-05-11T12:48:30.358Z,300
2017-05-11T12:49:30.970Z,310
2017-05-11T12:50:31.593Z,320
2017-05-11T12:51:32.212Z,340
2017-05-11T12:52:32.835Z,380
2017-05-11T12:53:33.446Z,445
2017-05-11T12:54:34.055Z,545
2017-05-11T12:55:34.667Z,670
2017-05-11T12:56:35.297Z,900
2017-05-11T12:57:35.921Z,1610
2017-05-11T12:58:36.537Z,1620
2017-05-11T12:59:37.162Z,1760
2017-05-11T13:00:37.789Z,1815
2017-05-11T13:01:38.450Z,1420
2017-05-11T13:02:39.076Z,1830
2017-05-11T13:03:39.700Z,1415
2017-05-11T13:04:40.335Z,1760
2017-05-11T13:05:40.950Z,1610
2017-05-11T13:06:41.626Z,1165
2017-05-11T13:07:42.242Z,1325
2017-05-11T13:08:42.874Z,1135
2017-05-11T13:09:43.501Z,1790
2017-05-11T13:10:44.117Z,1400
2017-05-11T13:11:44.738Z,1355
2017-05-11T13:12:45.372Z,1085
2017-05-11T13:13:45.997Z,1025
2017-05-11T13:14:46.630Z,985
2017-05-11T13:15:47.250Z,985
2017-05-11T13:16:47.878Z,990
2017-05-11T13:17:48.496Z,1050
2017-05-11T13:18:49.126Z,1035
2017-05-11T13:19:49.754Z,1045
2017-05-11T13:20:50.384Z,1480
2017-05-11T13:21:51.001Z,1240
2017-05-11T13:22:51.632Z,1675
2017-05-11T13:23:52.262Z,1225
2017-05-11T13:24:52.891Z,1555
2017-05-11T13:25:53.520Z,1660
2017-05-11T13:26:54.140Z,1645
2017-05-11T13:27:54.780Z,1520
2017-05-11T13:28:55.395Z,1505
2017-05-11T13:29:56.022Z,1500
2017-05-11T13:30:56.638Z,1490
2017-05-11T13:31:57.265Z,1465
2017-05-11T13:32:57.899Z,1445
2017-05-11T13:33:58.530Z,1465
2017-05-11T13:34:59.152Z,1415
2017-05-11T13:35:59.769Z,1440
2017-05-11T13:37:00.401Z,1410
2017-05-11T13:38:01.024Z,1225
2017-05-11T13:39:01.660Z,1180
2017-05-11T13:40:02.298Z,1345
2017-05-11T13:41:02.915Z,1320
2017-05-11T13:42:03.547Z,1280
2017-05-11T13:43:04.185Z,1240
2017-05-11T13:44:04.819Z,1205
2017-05-11T13:45:05.453Z,1090
2017-05-11T13:46:06.075Z,840
2017-05-11T13:47:06.760Z,1140
2017-05-11T13:48:07.376Z,995
2017-05-11T13:49:08.013Z,1070
2017-05-11T13:50:08.652Z,1015
2017-05-11T13:51:09.284Z,990
2017-05-11T13:52:09.915Z,955
2017-05-11T13:53:10.548Z,875
2017-05-11T13:54:11.175Z,730
2017-05-11T13:55:11.803Z,675
2017-05-11T13:56:12.549Z,640
2017-05-11T13:57:13.216Z,645
2017-05-11T13:58:13.836Z,685
2017-05-11T13:59:14.462Z,720
2017-05-11T14:00:15.090Z,690
2017-05-11T14:01:15.710Z,675
2017-05-11T14:02:16.345Z,765
2017-05-11T14:03:16.989Z,625
2017-05-11T14:04:17.618Z,640